Time;durP1;ratioP1;P1;durP2;ratioP2;P2;SDS_P1;SDS_P2;PMS_P1;PMS_P2;Temp;Humidity;BMP_temperature;BMP_pressure;BME280_temperature;BME280_humidity;BME280_pressure;Samples;Min_cycle;Max_cycle;Signal;HPM_P1;HPM_P2
2023/06/30 00:00:11;;;;;;;;;;;20.90;70.20;;;;;;4989841;28;1273;-74
2023/06/30 00:02:37;;;;;;;;;;;20.90;70.30;;;;;;4985955;28;884;-74
2023/06/30 00:05:04;;;;;;;;;;;20.90;70.30;;;;;;4988427;28;892;-73
2023/06/30 00:07:30;;;;;;;;;;;20.90;70.30;;;;;;4984567;28;1902;-74
2023/06/30 00:09:55;;;;;;;;;;;20.90;70.30;;;;;;5005583;28;1300;-74
2023/06/30 00:12:21;;;;;;;;;;;20.90;70.30;;;;;;4990705;28;1035;-74
2023/06/30 00:14:49;;;;;;;;;;;20.90;70.30;;;;;;4990820;28;860;-74
2023/06/30 00:17:15;;;;;;;;;;;20.90;70.30;;;;;;4988356;28;1014;-74
2023/06/30 00:19:40;;;;;;;;;;;20.90;70.30;;;;;;4988332;28;1264;-74
2023/06/30 00:22:06;;;;;;;;;;;20.90;70.30;;;;;;4991065;28;872;-74
2023/06/30 00:24:31;;;;;;;;;;;20.90;70.30;;;;;;4993570;28;956;-74
2023/06/30 00:26:57;;;;;;;;;;;20.90;70.30;;;;;;4989416;28;1906;-74
2023/06/30 00:29:22;;;;;;;;;;;20.90;70.30;;;;;;4987626;28;1350;-75
2023/06/30 00:31:48;;;;;;;;;;;20.90;70.30;;;;;;4987440;28;820;-74
2023/06/30 00:34:13;;;;;;;;;;;20.90;70.30;;;;;;4987849;28;859;-72
2023/06/30 00:36:39;;;;;;;;;;;20.90;70.30;;;;;;4988266;28;943;-73
2023/06/30 00:39:04;;;;;;;;;;;20.90;70.30;;;;;;4987878;28;864;-72
2023/06/30 00:41:30;;;;;;;;;;;20.90;70.40;;;;;;4984834;28;1316;-72
2023/06/30 00:43:55;;;;;;;;;;;20.90;70.30;;;;;;4989871;28;896;-73
2023/06/30 00:46:21;;;;;;;;;;;20.90;70.30;;;;;;4989607;28;840;-72
2023/06/30 00:48:46;;;;;;;;;;;20.90;70.30;;;;;;4984196;28;1903;-72
2023/06/30 00:51:12;;;;;;;;;;;20.90;70.40;;;;;;4988680;28;1304;-72
2023/06/30 00:53:38;;;;;;;;;;;20.90;70.30;;;;;;4988549;28;816;-71
2023/06/30 00:56:04;;;;;;;;;;;20.90;70.30;;;;;;4987701;28;1065;-72
2023/06/30 00:58:29;;;;;;;;;;;20.90;70.40;;;;;;4983751;28;827;-71
2023/06/30 01:01:06;;;;;;;;;;;20.90;70.40;;;;;;4984875;28;1313;-71
2023/06/30 01:03:42;;;;;;;;;;;20.90;70.40;;;;;;4986302;28;876;-71
2023/06/30 01:06:09;;;;;;;;;;;20.90;70.40;;;;;;4987958;28;824;-71
2023/06/30 01:08:54;;;;;;;;;;;20.90;70.40;;;;;;4982496;28;2017;-71
2023/06/30 01:11:19;;;;;;;;;;;20.90;70.40;;;;;;4983985;28;1288;-71
2023/06/30 01:13:45;;;;;;;;;;;20.90;70.40;;;;;;4990466;28;865;-71
2023/06/30 01:16:10;;;;;;;;;;;20.90;70.40;;;;;;4985567;28;873;-71
2023/06/30 01:18:36;;;;;;;;;;;20.90;70.40;;;;;;4972065;28;1181;-71
2023/06/30 01:21:02;;;;;;;;;;;20.90;70.40;;;;;;4983493;28;1301;-72
2023/06/30 01:23:34;;;;;;;;;;;20.90;70.40;;;;;;4980075;28;864;-71
2023/06/30 01:25:59;;;;;;;;;;;20.90;70.40;;;;;;4982753;28;864;-72
2023/06/30 01:28:27;;;;;;;;;;;20.90;70.40;;;;;;4981227;28;1906;-71
2023/06/30 01:30:54;;;;;;;;;;;20.90;70.40;;;;;;4987694;28;1281;-72
2023/06/30 01:33:20;;;;;;;;;;;20.90;70.40;;;;;;4985297;28;904;-72
2023/06/30 01:35:46;;;;;;;;;;;20.90;70.50;;;;;;4983441;28;864;-72
2023/06/30 01:38:11;;;;;;;;;;;20.90;70.40;;;;;;4989040;28;823;-74
2023/06/30 01:40:37;;;;;;;;;;;20.90;70.40;;;;;;4986703;28;1263;-74
2023/06/30 01:43:02;;;;;;;;;;;20.90;70.50;;;;;;4991498;28;941;-74
2023/06/30 01:45:28;;;;;;;;;;;20.90;70.50;;;;;;4993048;28;829;-74
2023/06/30 01:47:54;;;;;;;;;;;20.90;70.50;;;;;;4992071;28;1906;-74
2023/06/30 01:50:20;;;;;;;;;;;20.90;70.50;;;;;;4974697;28;1287;-74
2023/06/30 01:52:45;;;;;;;;;;;20.90;70.50;;;;;;4978496;28;1170;-73
2023/06/30 01:55:11;;;;;;;;;;;20.90;70.50;;;;;;4983842;28;820;-73
2023/06/30 01:57:36;;;;;;;;;;;20.90;70.50;;;;;;4982143;28;806;-72
2023/06/30 02:00:03;;;;;;;;;;;20.90;70.50;;;;;;4986495;28;1325;-72
2023/06/30 02:02:28;;;;;;;;;;;20.90;70.50;;;;;;4986469;28;835;-72
2023/06/30 02:04:54;;;;;;;;;;;20.90;70.50;;;;;;4979726;28;860;-72
2023/06/30 02:07:19;;;;;;;;;;;20.90;70.50;;;;;;4984396;28;1883;-72
2023/06/30 02:09:45;;;;;;;;;;;20.90;70.50;;;;;;4987827;28;1375;-72
2023/06/30 02:12:10;;;;;;;;;;;20.90;70.50;;;;;;4984217;28;877;-72
2023/06/30 02:14:35;;;;;;;;;;;20.90;70.50;;;;;;4986995;28;1046;-72
2023/06/30 02:17:01;;;;;;;;;;;20.90;70.50;;;;;;4983800;28;840;-71
2023/06/30 02:19:26;;;;;;;;;;;20.90;70.50;;;;;;4996832;28;1342;-72
2023/06/30 02:21:52;;;;;;;;;;;20.90;70.50;;;;;;4988150;28;1277;-73
2023/06/30 02:24:17;;;;;;;;;;;20.90;70.50;;;;;;4985254;28;1257;-73
2023/06/30 02:26:46;;;;;;;;;;;20.90;70.50;;;;;;4987056;28;1894;-72
2023/06/30 02:29:12;;;;;;;;;;;20.90;71.20;;;;;;4984003;28;1414;-72
2023/06/30 02:31:37;;;;;;;;;;;20.90;70.50;;;;;;4986838;28;890;-71
2023/06/30 02:34:03;;;;;;;;;;;20.90;70.50;;;;;;4980272;28;863;-72
2023/06/30 02:36:28;;;;;;;;;;;20.90;70.60;;;;;;4981540;28;902;-72
2023/06/30 02:38:54;;;;;;;;;;;20.90;70.50;;;;;;4985881;28;993;-76
2023/06/30 02:41:19;;;;;;;;;;;20.90;70.50;;;;;;4986928;28;1289;-72
2023/06/30 02:43:45;;;;;;;;;;;20.90;70.50;;;;;;4984155;28;1053;-73
2023/06/30 02:46:10;;;;;;;;;;;20.90;70.50;;;;;;4987089;28;881;-72
2023/06/30 02:48:36;;;;;;;;;;;20.90;70.50;;;;;;4984183;28;1997;-72
2023/06/30 02:51:01;;;;;;;;;;;20.90;70.50;;;;;;4986233;28;1323;-71
2023/06/30 02:53:27;;;;;;;;;;;20.90;70.50;;;;;;4985684;28;1070;-72
2023/06/30 02:55:52;;;;;;;;;;;20.90;70.60;;;;;;4989656;28;1617;-72
2023/06/30 02:58:18;;;;;;;;;;;20.90;70.50;;;;;;4986392;28;939;-72
2023/06/30 03:00:43;;;;;;;;;;;20.90;70.60;;;;;;4986705;28;1338;-72
2023/06/30 03:03:09;;;;;;;;;;;20.90;70.60;;;;;;4986330;28;995;-71
2023/06/30 03:05:34;;;;;;;;;;;20.90;70.60;;;;;;4982580;28;978;-72
2023/06/30 03:08:00;;;;;;;;;;;20.90;70.60;;;;;;4988828;28;1899;-71
2023/06/30 03:10:25;;;;;;;;;;;20.90;70.60;;;;;;4989508;28;1248;-72
2023/06/30 03:12:51;;;;;;;;;;;20.90;70.60;;;;;;4994833;28;1391;-72
2023/06/30 03:15:17;;;;;;;;;;;20.90;70.60;;;;;;4992736;28;1272;-72
2023/06/30 03:17:42;;;;;;;;;;;20.90;70.50;;;;;;4990258;28;854;-72
2023/06/30 03:20:12;;;;;;;;;;;20.90;70.60;;;;;;4989031;28;1348;-72
2023/06/30 03:22:38;;;;;;;;;;;20.90;70.60;;;;;;4988481;28;880;-72
2023/06/30 03:25:05;;;;;;;;;;;20.90;70.60;;;;;;4989640;28;1015;-72
2023/06/30 03:27:30;;;;;;;;;;;20.90;70.60;;;;;;4989189;28;1939;-72
2023/06/30 03:29:56;;;;;;;;;;;20.90;70.60;;;;;;4985168;28;1261;-71
2023/06/30 03:32:21;;;;;;;;;;;20.90;70.60;;;;;;4984249;28;871;-72
2023/06/30 03:34:47;;;;;;;;;;;20.90;70.60;;;;;;4980920;28;927;-72
2023/06/30 03:37:12;;;;;;;;;;;20.90;70.60;;;;;;4988416;28;1016;-72
2023/06/30 03:39:38;;;;;;;;;;;20.90;70.60;;;;;;4981333;28;1350;-72
2023/06/30 03:42:04;;;;;;;;;;;20.90;70.60;;;;;;4986244;28;877;-73
2023/06/30 03:44:29;;;;;;;;;;;20.90;70.60;;;;;;4987604;28;970;-73
2023/06/30 03:46:55;;;;;;;;;;;20.90;70.60;;;;;;4985148;28;1906;-72
2023/06/30 03:49:21;;;;;;;;;;;20.90;70.60;;;;;;4989716;28;1693;-72
2023/06/30 03:51:46;;;;;;;;;;;20.90;70.60;;;;;;4985667;28;900;-73
2023/06/30 03:54:12;;;;;;;;;;;20.90;70.60;;;;;;4984497;28;1362;-73
2023/06/30 03:56:37;;;;;;;;;;;20.90;70.60;;;;;;4991320;28;924;-73
2023/06/30 03:59:03;;;;;;;;;;;20.90;70.60;;;;;;4987459;28;829;-73
2023/06/30 04:01:28;;;;;;;;;;;20.90;70.60;;;;;;4991784;28;1338;-73
2023/06/30 04:03:54;;;;;;;;;;;20.90;70.60;;;;;;4990389;28;778;-73
2023/06/30 04:06:19;;;;;;;;;;;20.90;70.60;;;;;;4990410;28;872;-73
2023/06/30 04:08:45;;;;;;;;;;;20.90;70.60;;;;;;4989339;28;1950;-73
2023/06/30 04:11:11;;;;;;;;;;;20.90;70.60;;;;;;4992192;28;1279;-73
2023/06/30 04:13:36;;;;;;;;;;;20.90;70.60;;;;;;4993689;28;975;-73
2023/06/30 04:16:02;;;;;;;;;;;20.90;70.70;;;;;;4983699;28;780;-73
2023/06/30 04:18:27;;;;;;;;;;;20.90;70.60;;;;;;4985399;28;1057;-73
2023/06/30 04:20:53;;;;;;;;;;;20.90;70.70;;;;;;4990795;28;1279;-73
2023/06/30 04:23:18;;;;;;;;;;;20.90;70.60;;;;;;4985480;28;824;-73
2023/06/30 04:25:44;;;;;;;;;;;20.90;70.60;;;;;;4990935;28;783;-73
2023/06/30 04:28:09;;;;;;;;;;;20.90;70.70;;;;;;4985986;28;1948;-73
2023/06/30 04:30:35;;;;;;;;;;;20.90;70.70;;;;;;4986922;28;1234;-73
2023/06/30 04:33:00;;;;;;;;;;;20.90;70.70;;;;;;4986584;28;811;-73
2023/06/30 04:35:26;;;;;;;;;;;20.90;70.70;;;;;;4990683;28;763;-73
2023/06/30 04:37:51;;;;;;;;;;;20.90;70.70;;;;;;4989072;28;911;-73
2023/06/30 04:40:17;;;;;;;;;;;20.90;70.70;;;;;;4986129;28;1331;-73
2023/06/30 04:42:43;;;;;;;;;;;20.90;70.70;;;;;;4992030;28;890;-73
2023/06/30 04:45:08;;;;;;;;;;;20.90;70.70;;;;;;4974162;28;1118;-73
2023/06/30 04:47:34;;;;;;;;;;;20.90;70.70;;;;;;4985070;28;1956;-74
2023/06/30 04:49:59;;;;;;;;;;;20.90;70.70;;;;;;4984382;28;1327;-74
2023/06/30 04:52:25;;;;;;;;;;;20.90;70.70;;;;;;4987813;28;855;-73
2023/06/30 04:54:50;;;;;;;;;;;20.90;70.70;;;;;;4985560;28;883;-72
2023/06/30 04:57:16;;;;;;;;;;;20.90;70.70;;;;;;4987927;28;2434;-74
2023/06/30 04:59:41;;;;;;;;;;;20.90;70.70;;;;;;4989717;28;1293;-73
2023/06/30 05:02:06;;;;;;;;;;;20.90;70.70;;;;;;4985603;28;992;-74
2023/06/30 05:04:32;;;;;;;;;;;20.90;70.70;;;;;;4982713;28;852;-72
2023/06/30 05:06:57;;;;;;;;;;;20.90;70.70;;;;;;4989463;28;1894;-71
2023/06/30 05:09:23;;;;;;;;;;;20.90;70.70;;;;;;4988892;28;1378;-71
2023/06/30 05:11:49;;;;;;;;;;;20.90;70.70;;;;;;4987786;28;820;-71
2023/06/30 05:14:14;;;;;;;;;;;20.90;70.70;;;;;;4982778;28;1361;-71
2023/06/30 05:16:40;;;;;;;;;;;20.90;70.80;;;;;;4985213;28;1080;-71
2023/06/30 05:19:05;;;;;;;;;;;20.90;70.70;;;;;;4982263;28;872;-71
2023/06/30 05:21:31;;;;;;;;;;;20.90;70.70;;;;;;4984697;28;1342;-71
2023/06/30 05:23:56;;;;;;;;;;;20.90;70.70;;;;;;4983981;28;888;-71
2023/06/30 05:26:22;;;;;;;;;;;20.90;70.70;;;;;;4984333;28;861;-71
2023/06/30 05:28:47;;;;;;;;;;;20.90;70.80;;;;;;4989069;28;1950;-71
2023/06/30 05:31:13;;;;;;;;;;;20.90;70.70;;;;;;4981080;28;1282;-74
2023/06/30 05:33:38;;;;;;;;;;;20.90;70.70;;;;;;4981401;28;1254;-73
2023/06/30 05:36:04;;;;;;;;;;;20.90;70.70;;;;;;4979259;28;853;-73
2023/06/30 05:38:29;;;;;;;;;;;20.90;70.80;;;;;;4970737;28;1358;-70
2023/06/30 05:40:55;;;;;;;;;;;20.90;70.70;;;;;;4986587;28;1277;-70
2023/06/30 05:43:21;;;;;;;;;;;20.90;70.80;;;;;;4984480;28;958;-70
2023/06/30 05:45:49;;;;;;;;;;;20.90;70.70;;;;;;4985881;28;1105;-70
2023/06/30 05:48:15;;;;;;;;;;;20.90;70.80;;;;;;4984891;28;2335;-70
2023/06/30 05:50:40;;;;;;;;;;;20.90;70.70;;;;;;4985650;28;1451;-71
2023/06/30 05:53:06;;;;;;;;;;;20.90;70.70;;;;;;4985237;28;868;-70
2023/06/30 05:55:32;;;;;;;;;;;20.90;70.80;;;;;;4985365;28;918;-69
2023/06/30 05:57:58;;;;;;;;;;;20.90;70.80;;;;;;4974425;28;2061;-71
2023/06/30 06:00:24;;;;;;;;;;;20.90;70.80;;;;;;4989488;28;2420;-71
2023/06/30 06:02:50;;;;;;;;;;;20.90;70.70;;;;;;4989517;28;2107;-70
2023/06/30 06:05:15;;;;;;;;;;;20.90;70.80;;;;;;4985590;28;803;-71
2023/06/30 06:07:41;;;;;;;;;;;20.90;70.80;;;;;;4984508;28;1910;-70
2023/06/30 06:10:07;;;;;;;;;;;20.90;70.80;;;;;;4984402;28;1273;-70
2023/06/30 06:12:32;;;;;;;;;;;20.90;71.50;;;;;;4981222;28;850;-69
2023/06/30 06:14:58;;;;;;;;;;;20.90;70.80;;;;;;4988296;28;850;-71
2023/06/30 06:17:23;;;;;;;;;;;20.90;70.80;;;;;;4978889;28;1029;-70
2023/06/30 06:19:48;;;;;;;;;;;20.90;70.80;;;;;;4980532;28;1320;-71
2023/06/30 06:22:14;;;;;;;;;;;20.90;70.80;;;;;;4988411;28;1086;-70
2023/06/30 06:24:39;;;;;;;;;;;20.90;70.80;;;;;;4987001;28;990;-70
2023/06/30 06:27:05;;;;;;;;;;;20.90;70.80;;;;;;4986307;28;1895;-69
2023/06/30 06:29:30;;;;;;;;;;;20.90;70.80;;;;;;4984797;28;1279;-71
2023/06/30 06:31:56;;;;;;;;;;;20.90;70.80;;;;;;4984938;28;868;-70
2023/06/30 06:34:22;;;;;;;;;;;20.90;70.80;;;;;;4983142;28;879;-71
2023/06/30 06:36:48;;;;;;;;;;;20.90;70.80;;;;;;4984217;28;809;-71
2023/06/30 06:39:14;;;;;;;;;;;20.90;70.80;;;;;;4965279;28;1520;-71
2023/06/30 06:41:39;;;;;;;;;;;20.90;70.80;;;;;;4988691;28;869;-70
2023/06/30 06:44:05;;;;;;;;;;;20.90;70.80;;;;;;4988231;28;991;-71
2023/06/30 06:46:30;;;;;;;;;;;20.90;70.80;;;;;;4989398;28;982;-71
2023/06/30 06:48:56;;;;;;;;;;;20.90;70.80;;;;;;4989219;28;1964;-71
2023/06/30 06:51:21;;;;;;;;;;;20.90;70.80;;;;;;4984088;28;1391;-71
2023/06/30 06:53:47;;;;;;;;;;;20.90;70.90;;;;;;4994286;28;800;-71
2023/06/30 06:56:12;;;;;;;;;;;20.90;70.80;;;;;;4990631;28;2009;-71
2023/06/30 06:58:38;;;;;;;;;;;20.90;70.80;;;;;;4988723;28;1308;-71
2023/06/30 07:01:03;;;;;;;;;;;20.90;70.80;;;;;;4990331;28;2091;-71
2023/06/30 07:03:29;;;;;;;;;;;20.90;70.80;;;;;;4991073;28;1153;-70
2023/06/30 07:05:55;;;;;;;;;;;20.90;70.80;;;;;;4990070;28;1307;-71
2023/06/30 07:08:21;;;;;;;;;;;20.90;70.80;;;;;;4985342;28;1902;-71
2023/06/30 07:10:47;;;;;;;;;;;20.90;70.80;;;;;;4983828;28;1266;-71
2023/06/30 07:13:13;;;;;;;;;;;20.90;70.90;;;;;;4986755;28;813;-71
2023/06/30 07:15:39;;;;;;;;;;;20.90;70.80;;;;;;4989662;28;1406;-70
2023/06/30 07:18:04;;;;;;;;;;;20.90;70.80;;;;;;4981964;28;813;-70
2023/06/30 07:20:30;;;;;;;;;;;20.90;70.90;;;;;;4986187;28;1274;-70
2023/06/30 07:22:56;;;;;;;;;;;20.90;70.90;;;;;;4985582;28;867;-70
2023/06/30 07:25:24;;;;;;;;;;;20.90;70.80;;;;;;4989398;28;1342;-70
2023/06/30 07:27:52;;;;;;;;;;;20.90;70.90;;;;;;4991056;28;1960;-70
2023/06/30 07:30:18;;;;;;;;;;;20.90;70.90;;;;;;4986147;28;1363;-70
2023/06/30 07:32:44;;;;;;;;;;;20.90;70.90;;;;;;4988523;28;2082;-70
2023/06/30 07:35:09;;;;;;;;;;;20.90;70.80;;;;;;4985461;28;2015;-70
2023/06/30 07:37:35;;;;;;;;;;;20.90;70.90;;;;;;4986056;28;1370;-70
2023/06/30 07:40:00;;;;;;;;;;;20.90;70.90;;;;;;4990441;28;2131;-70
2023/06/30 07:42:26;;;;;;;;;;;20.90;70.90;;;;;;4991007;28;1579;-70
2023/06/30 07:44:51;;;;;;;;;;;20.90;70.90;;;;;;4984235;28;1465;-70
2023/06/30 07:47:18;;;;;;;;;;;20.90;70.90;;;;;;4988532;28;2007;-71
2023/06/30 07:49:44;;;;;;;;;;;20.90;70.90;;;;;;4989147;28;1363;-71
2023/06/30 07:52:10;;;;;;;;;;;20.90;70.90;;;;;;4989387;28;1207;-70
2023/06/30 07:54:35;;;;;;;;;;;20.90;70.90;;;;;;4988973;28;926;-70
2023/06/30 07:57:01;;;;;;;;;;;20.90;70.90;;;;;;4989929;28;1359;-71
2023/06/30 07:59:26;;;;;;;;;;;20.90;70.90;;;;;;4986335;28;2226;-70
2023/06/30 08:01:52;;;;;;;;;;;20.90;70.90;;;;;;4987726;28;1414;-70
2023/06/30 08:04:18;;;;;;;;;;;20.90;70.90;;;;;;4984041;28;1328;-70
2023/06/30 08:06:44;;;;;;;;;;;20.90;70.90;;;;;;4986217;28;1337;-70
2023/06/30 08:09:09;;;;;;;;;;;20.90;71.30;;;;;;4985107;28;1903;-70
2023/06/30 08:11:35;;;;;;;;;;;20.90;70.90;;;;;;4991144;28;1167;-70
2023/06/30 08:14:02;;;;;;;;;;;20.90;70.90;;;;;;4988908;28;848;-70
2023/06/30 08:16:27;;;;;;;;;;;20.90;70.90;;;;;;4989672;28;859;-69
2023/06/30 08:18:53;;;;;;;;;;;20.90;70.90;;;;;;4986481;28;954;-69
2023/06/30 08:21:19;;;;;;;;;;;20.90;70.90;;;;;;4988120;28;1316;-70
2023/06/30 08:23:44;;;;;;;;;;;20.90;70.90;;;;;;4986955;28;858;-69
2023/06/30 08:26:09;;;;;;;;;;;20.90;70.90;;;;;;4984617;28;1261;-70
2023/06/30 08:28:35;;;;;;;;;;;20.90;70.90;;;;;;4987424;28;1886;-70
2023/06/30 08:31:00;;;;;;;;;;;20.90;70.90;;;;;;4985784;28;1260;-70
2023/06/30 08:33:27;;;;;;;;;;;20.90;70.90;;;;;;4983684;28;879;-70
2023/06/30 08:35:52;;;;;;;;;;;20.90;71.00;;;;;;4989641;28;776;-70
2023/06/30 08:38:18;;;;;;;;;;;20.90;70.90;;;;;;4980256;28;888;-69
2023/06/30 08:40:43;;;;;;;;;;;20.90;70.90;;;;;;4989672;28;1247;-69
2023/06/30 08:43:12;;;;;;;;;;;20.90;70.90;;;;;;4991713;28;1640;-70
2023/06/30 08:45:42;;;;;;;;;;;20.90;71.30;;;;;;4986511;28;882;-70
2023/06/30 08:48:07;;;;;;;;;;;20.90;71.80;;;;;;4986660;28;1914;-69
2023/06/30 08:50:36;;;;;;;;;;;20.90;71.90;;;;;;4982134;28;1310;-70
2023/06/30 08:53:02;;;;;;;;;;;20.90;72.70;;;;;;4989323;28;947;-70
2023/06/30 08:55:27;;;;;;;;;;;20.90;72.30;;;;;;4985570;28;856;-70
2023/06/30 08:57:56;;;;;;;;;;;20.90;72.20;;;;;;4984548;28;814;-70
2023/06/30 09:00:25;;;;;;;;;;;20.90;72.30;;;;;;4991419;28;1374;-70
2023/06/30 09:02:50;;;;;;;;;;;20.90;72.40;;;;;;4985695;28;904;-70
2023/06/30 09:05:16;;;;;;;;;;;20.90;72.70;;;;;;4990242;28;910;-69
2023/06/30 09:07:43;;;;;;;;;;;20.90;72.60;;;;;;5004696;28;1894;-69
2023/06/30 09:10:09;;;;;;;;;;;20.90;73.30;;;;;;4983588;28;1347;-69
2023/06/30 09:12:34;;;;;;;;;;;20.90;72.90;;;;;;4984973;28;951;-69
2023/06/30 09:15:00;;;;;;;;;;;20.90;73.00;;;;;;4989919;28;1229;-69
2023/06/30 09:17:26;;;;;;;;;;;21.00;73.30;;;;;;4989739;28;887;-69
2023/06/30 09:19:52;;;;;;;;;;;21.00;73.40;;;;;;4987947;28;1245;-69
2023/06/30 09:22:19;;;;;;;;;;;21.00;73.50;;;;;;4985458;28;841;-70
2023/06/30 09:24:45;;;;;;;;;;;21.00;73.60;;;;;;4987102;28;898;-69
2023/06/30 09:27:10;;;;;;;;;;;21.00;73.70;;;;;;4985348;28;1962;-69
2023/06/30 09:29:36;;;;;;;;;;;21.00;73.70;;;;;;4986468;28;1287;-69
2023/06/30 09:32:02;;;;;;;;;;;21.00;73.90;;;;;;4988111;28;924;-70
2023/06/30 09:34:27;;;;;;;;;;;21.00;74.00;;;;;;4989591;28;877;-69
2023/06/30 09:36:54;;;;;;;;;;;21.00;74.10;;;;;;4984471;28;949;-70
2023/06/30 09:39:19;;;;;;;;;;;21.00;74.60;;;;;;4983818;28;1326;-70
2023/06/30 09:41:45;;;;;;;;;;;21.00;74.20;;;;;;4988173;28;1094;-70
2023/06/30 09:44:11;;;;;;;;;;;21.00;74.00;;;;;;4984535;28;1019;-69
2023/06/30 09:46:44;;;;;;;;;;;21.00;74.00;;;;;;4973248;28;1297;-70
2023/06/30 09:49:11;;;;;;;;;;;21.00;74.10;;;;;;4985810;28;1906;-70
2023/06/30 09:51:39;;;;;;;;;;;21.00;74.10;;;;;;4995110;28;880;-69
2023/06/30 09:54:04;;;;;;;;;;;21.00;74.20;;;;;;4981164;28;1234;-70
2023/06/30 09:56:30;;;;;;;;;;;21.00;74.30;;;;;;4986817;28;1330;-70
2023/06/30 09:58:59;;;;;;;;;;;21.10;74.40;;;;;;4984387;28;820;-70
2023/06/30 10:01:24;;;;;;;;;;;21.00;74.50;;;;;;4983810;28;1374;-71
2023/06/30 10:03:50;;;;;;;;;;;21.00;74.70;;;;;;4988874;28;881;-70
2023/06/30 10:06:20;;;;;;;;;;;21.00;74.60;;;;;;4986486;28;907;-70
2023/06/30 10:08:46;;;;;;;;;;;21.00;74.80;;;;;;4985637;28;1915;-70
2023/06/30 10:11:12;;;;;;;;;;;21.00;74.90;;;;;;4984328;28;1368;-70
2023/06/30 10:13:37;;;;;;;;;;;21.10;75.00;;;;;;4988477;28;879;-70
2023/06/30 10:16:03;;;;;;;;;;;21.10;74.90;;;;;;4983444;28;946;-70
2023/06/30 10:18:28;;;;;;;;;;;21.10;74.80;;;;;;4981704;28;994;-70
2023/06/30 10:20:54;;;;;;;;;;;21.10;75.40;;;;;;4987046;28;1724;-70
2023/06/30 10:23:19;;;;;;;;;;;21.10;74.80;;;;;;4987914;28;860;-70
2023/06/30 10:25:45;;;;;;;;;;;21.10;74.80;;;;;;4988815;28;1341;-71
2023/06/30 10:28:10;;;;;;;;;;;21.10;74.80;;;;;;4987087;28;1895;-70
2023/06/30 10:30:36;;;;;;;;;;;21.10;74.90;;;;;;4979863;28;1272;-71
2023/06/30 10:33:02;;;;;;;;;;;21.10;74.80;;;;;;4981037;28;809;-70
2023/06/30 10:35:27;;;;;;;;;;;21.10;74.80;;;;;;4984212;28;905;-71
2023/06/30 10:37:53;;;;;;;;;;;21.10;74.80;;;;;;4986681;28;1398;-69
2023/06/30 10:40:28;;;;;;;;;;;21.10;74.90;;;;;;4985449;28;1340;-71
2023/06/30 10:42:54;;;;;;;;;;;21.10;74.90;;;;;;4983279;28;1260;-70
2023/06/30 10:45:20;;;;;;;;;;;21.10;75.00;;;;;;4983456;28;859;-70
2023/06/30 10:47:50;;;;;;;;;;;21.10;75.00;;;;;;4982085;28;1903;-70
2023/06/30 10:50:15;;;;;;;;;;;21.10;75.10;;;;;;4981352;28;1263;-70
2023/06/30 10:52:53;;;;;;;;;;;21.10;75.00;;;;;;4981887;28;837;-70
2023/06/30 10:55:22;;;;;;;;;;;21.10;75.10;;;;;;4984234;28;872;-70
2023/06/30 10:57:48;;;;;;;;;;;21.10;75.10;;;;;;4987674;28;857;-70
2023/06/30 11:00:14;;;;;;;;;;;21.10;75.00;;;;;;4982790;28;1338;-70
2023/06/30 11:02:47;;;;;;;;;;;21.10;75.00;;;;;;4984326;28;796;-70
2023/06/30 11:05:29;;;;;;;;;;;21.10;74.90;;;;;;4987081;28;879;-70
2023/06/30 11:08:07;;;;;;;;;;;21.10;74.90;;;;;;4979983;28;1895;-70
2023/06/30 11:10:32;;;;;;;;;;;21.10;74.90;;;;;;4983628;28;1342;-70
2023/06/30 11:12:58;;;;;;;;;;;21.10;74.90;;;;;;4982528;28;888;-70
2023/06/30 11:15:42;;;;;;;;;;;21.10;74.90;;;;;;4985682;28;877;-70
2023/06/30 11:18:14;;;;;;;;;;;21.10;74.80;;;;;;4979578;28;849;-70
2023/06/30 11:20:56;;;;;;;;;;;21.10;74.80;;;;;;4982910;28;1338;-70
2023/06/30 11:23:22;;;;;;;;;;;21.10;74.80;;;;;;4979137;28;864;-70
2023/06/30 11:25:47;;;;;;;;;;;21.10;74.70;;;;;;4984217;28;887;-70
2023/06/30 11:28:12;;;;;;;;;;;21.10;74.60;;;;;;4991743;28;1894;-70
2023/06/30 11:30:41;;;;;;;;;;;21.10;74.60;;;;;;4992404;28;1376;-70
2023/06/30 11:33:07;;;;;;;;;;;21.10;74.30;;;;;;4987870;28;864;-70
2023/06/30 11:35:33;;;;;;;;;;;21.10;74.50;;;;;;4989509;28;872;-70
2023/06/30 11:37:58;;;;;;;;;;;21.10;74.60;;;;;;4991312;28;823;-70
2023/06/30 11:40:24;;;;;;;;;;;21.10;74.70;;;;;;4977928;28;1873;-70
2023/06/30 11:42:50;;;;;;;;;;;21.10;74.60;;;;;;4985237;28;974;-70
2023/06/30 11:45:19;;;;;;;;;;;21.10;74.90;;;;;;4987779;28;808;-70
2023/06/30 11:47:48;;;;;;;;;;;21.10;75.00;;;;;;4985688;28;1910;-70
2023/06/30 11:50:14;;;;;;;;;;;21.10;75.00;;;;;;4985013;28;1608;-70
2023/06/30 11:52:39;;;;;;;;;;;21.10;74.90;;;;;;4986277;28;856;-70
2023/06/30 11:55:14;;;;;;;;;;;21.10;74.90;;;;;;4982357;28;948;-70
2023/06/30 11:57:39;;;;;;;;;;;21.10;74.80;;;;;;4986031;28;863;-70
2023/06/30 12:00:08;;;;;;;;;;;21.10;75.50;;;;;;4991424;28;1283;-70
2023/06/30 12:02:34;;;;;;;;;;;21.10;74.60;;;;;;4990665;28;1197;-71
2023/06/30 12:04:59;;;;;;;;;;;21.10;74.60;;;;;;4991058;28;863;-70
2023/06/30 12:07:25;;;;;;;;;;;21.10;74.60;;;;;;4989837;28;1902;-70
2023/06/30 12:10:00;;;;;;;;;;;21.10;74.60;;;;;;4981103;28;1263;-70
2023/06/30 12:12:29;;;;;;;;;;;21.10;74.50;;;;;;4988990;28;895;-70
2023/06/30 12:14:56;;;;;;;;;;;21.10;74.40;;;;;;4989832;28;977;-70
2023/06/30 12:17:24;;;;;;;;;;;21.10;74.40;;;;;;4984589;28;817;-71
2023/06/30 12:19:50;;;;;;;;;;;21.10;74.30;;;;;;4988251;28;1364;-70
2023/06/30 12:22:23;;;;;;;;;;;21.10;74.40;;;;;;4983050;28;860;-70
2023/06/30 12:24:52;;;;;;;;;;;21.10;74.10;;;;;;4984777;28;805;-71
2023/06/30 12:27:18;;;;;;;;;;;21.10;74.10;;;;;;4984125;28;1906;-70
2023/06/30 12:29:47;;;;;;;;;;;21.10;74.30;;;;;;4989804;28;1202;-71
2023/06/30 12:32:13;;;;;;;;;;;21.10;74.50;;;;;;4986439;28;833;-71
2023/06/30 12:34:39;;;;;;;;;;;21.10;74.60;;;;;;4986177;28;1620;-71
2023/06/30 12:37:04;;;;;;;;;;;21.10;74.80;;;;;;4985995;28;804;-71
2023/06/30 12:39:30;;;;;;;;;;;21.10;74.80;;;;;;4988807;28;1273;-71
2023/06/30 12:41:55;;;;;;;;;;;21.10;74.60;;;;;;4990143;28;866;-70
2023/06/30 12:44:21;;;;;;;;;;;21.10;74.40;;;;;;4984705;28;813;-71
2023/06/30 12:46:59;;;;;;;;;;;21.10;74.30;;;;;;4985598;28;856;-71
2023/06/30 12:49:28;;;;;;;;;;;21.00;74.50;;;;;;4991652;28;1967;-71
2023/06/30 12:51:54;;;;;;;;;;;21.10;74.90;;;;;;4985176;28;884;-71
2023/06/30 12:54:19;;;;;;;;;;;21.10;75.00;;;;;;4984625;28;1006;-71
2023/06/30 12:56:45;;;;;;;;;;;21.10;75.00;;;;;;4986750;28;1303;-71
2023/06/30 12:59:10;;;;;;;;;;;21.10;75.00;;;;;;4984779;28;1366;-71
2023/06/30 13:01:36;;;;;;;;;;;21.10;74.80;;;;;;4987777;28;916;-70
2023/06/30 13:04:01;;;;;;;;;;;21.10;74.50;;;;;;4989777;28;995;-71
2023/06/30 13:06:26;;;;;;;;;;;21.10;74.50;;;;;;4987738;28;813;-71
2023/06/30 13:08:52;;;;;;;;;;;21.10;74.30;;;;;;4987647;28;1955;-71
2023/06/30 13:11:17;;;;;;;;;;;21.10;74.30;;;;;;4986626;28;1261;-71
2023/06/30 13:13:43;;;;;;;;;;;21.10;74.30;;;;;;4987212;28;808;-71
2023/06/30 13:16:08;;;;;;;;;;;21.10;74.40;;;;;;4989646;28;949;-71
2023/06/30 13:18:34;;;;;;;;;;;21.10;74.20;;;;;;4989233;28;1179;-71
2023/06/30 13:21:00;;;;;;;;;;;21.10;74.20;;;;;;4987197;28;1286;-71
2023/06/30 13:23:25;;;;;;;;;;;21.00;74.20;;;;;;4985642;28;990;-71
2023/06/30 13:25:51;;;;;;;;;;;21.00;74.10;;;;;;4989414;28;1090;-70
2023/06/30 13:28:17;;;;;;;;;;;21.10;74.10;;;;;;4989427;28;1903;-71
2023/06/30 13:30:42;;;;;;;;;;;21.10;74.20;;;;;;4984035;28;1259;-71
2023/06/30 13:33:08;;;;;;;;;;;21.10;74.10;;;;;;4984631;28;927;-71
2023/06/30 13:35:33;;;;;;;;;;;21.00;74.00;;;;;;4984842;28;1014;-71
2023/06/30 13:37:59;;;;;;;;;;;21.00;74.20;;;;;;4984737;28;887;-71
2023/06/30 13:40:24;;;;;;;;;;;21.00;74.00;;;;;;4983609;28;1279;-71
2023/06/30 13:42:50;;;;;;;;;;;21.10;74.00;;;;;;4989115;28;795;-71
2023/06/30 13:45:16;;;;;;;;;;;21.00;73.80;;;;;;4984900;28;869;-71
2023/06/30 13:47:41;;;;;;;;;;;21.10;74.00;;;;;;4981504;28;1906;-71
2023/06/30 13:50:07;;;;;;;;;;;21.00;73.80;;;;;;4982898;28;1256;-71
2023/06/30 13:52:32;;;;;;;;;;;21.00;73.90;;;;;;4971681;28;2119;-71
2023/06/30 13:54:58;;;;;;;;;;;21.00;73.80;;;;;;4984918;28;1351;-71
2023/06/30 13:57:23;;;;;;;;;;;21.00;73.80;;;;;;4988582;28;884;-71
2023/06/30 13:59:49;;;;;;;;;;;21.00;73.80;;;;;;4987242;28;1433;-71
2023/06/30 14:02:14;;;;;;;;;;;21.00;73.70;;;;;;4980922;28;2082;-71
2023/06/30 14:04:40;;;;;;;;;;;21.00;73.70;;;;;;4981603;28;2097;-69
2023/06/30 14:07:06;;;;;;;;;;;21.00;73.70;;;;;;4982462;28;1902;-70
2023/06/30 14:09:33;;;;;;;;;;;21.00;73.60;;;;;;4981497;28;1685;-69
2023/06/30 14:11:59;;;;;;;;;;;21.00;73.70;;;;;;4986023;28;1978;-69
2023/06/30 14:14:24;;;;;;;;;;;21.00;73.60;;;;;;4985270;28;1380;-70
2023/06/30 14:16:50;;;;;;;;;;;21.00;73.60;;;;;;4981119;28;1699;-70
2023/06/30 14:19:15;;;;;;;;;;;21.00;73.60;;;;;;4980052;28;1315;-70
2023/06/30 14:21:41;;;;;;;;;;;21.00;73.50;;;;;;4984284;28;877;-70
2023/06/30 14:24:08;;;;;;;;;;;21.00;73.50;;;;;;4987521;28;914;-70
2023/06/30 14:26:35;;;;;;;;;;;21.00;73.50;;;;;;4981402;28;840;-70
2023/06/30 14:29:00;;;;;;;;;;;21.00;73.50;;;;;;4985433;28;1898;-69